Boheme — 9V8514 — position and weather

sailwx.info

Track history (hours):
 
Tides and Currents Weather Stations Pressure Air Temp Water Temp Dewpoint Dewpoint Depression Visibility Wind Speed Wind Dir Waves Ship Positions

Boheme

Last reported at 2017-Nov-19 18:00 UTC. Time now 2017-Nov-19 18:21 UTC.
Position N 50°33' W 000°33'.

Length 227 m; draft 9.9 m.

Type: Cargo ship. MMSI: 563262000.

Date/timePositionNaut miles runAvg speedWind from/ knotsBaromVisibWave heightAir tempDewpointWater temp
2017-Nov-19 18:00N 50°33' W 000°33'1 2.5
2017-Nov-19 17:31N 50°32' W 000°35'5 9.6
2017-Nov-19 17:00N 50°29' W 000°40'1 1.4
2017-Nov-19 16:30N 50°28' W 000°41'2 3.1
2017-Nov-19 15:59N 50°29' W 000°39'1 2.8
2017-Nov-19 15:30N 50°30' W 000°38'1 2.3
2017-Nov-19 15:00N 50°31' W 000°36'1 1.8
2017-Nov-19 14:31N 50°32' W 000°35'1 1.5
2017-Nov-19 14:00N 50°32' W 000°34'1 1.3
2017-Nov-19 13:30N 50°33' W 000°34'1 2.3
2017-Nov-19 13:00N 50°33' W 000°32'4 7.0
2017-Nov-19 12:30N 50°33' W 000°26'612.9
2017-Nov-19 12:00N 50°33' W 000°16'714.0
2017-Nov-19 11:30N 50°32' W 000°05'713.9
2017-Nov-19 11:00N 50°31' E 000°06'613.0
2017-Nov-19 10:30N 50°32' E 000°15'714.2
2017-Nov-19 10:00N 50°34' E 000°26'714.0
2017-Nov-19 09:30N 50°36' E 000°37'714.3
2017-Nov-19 09:00N 50°40' E 000°46'815.3
2017-Nov-19 08:30N 50°45' E 000°55'816.4
2017-Nov-19 08:00N 50°51' E 001°04'917.4
2017-Nov-19 07:30N 50°57' E 001°14'918.5
2017-Nov-19 07:01N 51°03' E 001°25'918.9
2017-Nov-19 06:30N 51°09' E 001°37'917.8
2017-Nov-19 06:00N 51°15' E 001°48'816.8
2017-Nov-19 05:30N 51°22' E 001°55'612.3
2017-Nov-19 05:00N 51°24' E 002°04'714.9
2017-Nov-19 04:31N 51°21' E 002°14'714.2
2017-Nov-19 04:00N 51°22' E 002°26'714.4
2017-Nov-19 03:30N 51°23' E 002°37'611.4
2017-Nov-19 02:58N 51°25' E 002°47'510.9
2017-Nov-19 02:30N 51°25' E 002°55'612.1
2017-Nov-19 02:00N 51°24' E 003°04'510.9
2017-Nov-19 01:31N 51°22' E 003°12'2 3.6
2017-Nov-19 01:00N 51°20' E 003°13'0 0.0
2017-Nov-19 00:30N 51°20' E 003°13'1 2.2
2017-Nov-19 00:00N 51°19' E 003°14'0 0.0
2017-Nov-18 23:28N 51°19' E 003°14'0 0.0
2017-Nov-18 22:58N 51°19' E 003°14'0 0.0
2017-Nov-18 22:28N 51°19' E 003°14'0 0.0
2017-Nov-18 21:58N 51°19' E 003°14'0 0.0
2017-Nov-18 21:28N 51°19' E 003°14'0 0.0
2017-Nov-18 20:58N 51°19' E 003°14'0 0.0
2017-Nov-18 20:25N 51°19' E 003°14'0 0.0
2017-Nov-18 19:58N 51°19' E 003°14'0 0.0
2017-Nov-18 19:28N 51°19' E 003°14'0 0.0
2017-Nov-18 18:58N 51°19' E 003°14'0 0.0
2017-Nov-18 18:28N 51°19' E 003°14'0 0.0
2017-Nov-18 17:58N 51°19' E 003°14'0 0.0
2017-Nov-18 17:28N 51°19' E 003°14'0 0.0
2017-Nov-18 17:01N 51°19' E 003°14'0 0.0
2017-Nov-18 16:31N 51°19' E 003°14'0 0.0
2017-Nov-18 15:57N 51°19' E 003°14'0 0.0
2017-Nov-18 15:30N 51°19' E 003°14'0 0.0
2017-Nov-18 15:01N 51°19' E 003°14'0 0.0
2017-Nov-18 14:30N 51°19' E 003°14'0 0.0
2017-Nov-18 14:00N 51°19' E 003°14'0 0.0
2017-Nov-18 13:27N 51°19' E 003°14'0 0.0
2017-Nov-18 13:00N 51°19' E 003°14'0 0.0
2017-Nov-18 12:27N 51°19' E 003°14'0 0.0
2017-Nov-18 12:00N 51°19' E 003°14'0 0.0
2017-Nov-18 11:30N 51°19' E 003°14'0 0.0
2017-Nov-18 11:00N 51°19' E 003°14'0 0.0
2017-Nov-18 10:30N 51°19' E 003°14'0 0.0
2017-Nov-18 10:00N 51°19' E 003°14'0 0.0
2017-Nov-18 09:24N 51°19' E 003°14'0 0.0
2017-Nov-18 09:00N 51°19' E 003°14'0 0.0
2017-Nov-18 08:30N 51°19' E 003°14'0 0.0
2017-Nov-18 08:00N 51°19' E 003°14'0 0.0
2017-Nov-18 07:30N 51°19' E 003°14'0 0.0
2017-Nov-18 07:00N 51°19' E 003°14'0 0.0
2017-Nov-18 06:30N 51°19' E 003°14'1 1.9
2017-Nov-18 06:00N 51°20' E 003°13'0 0.3
2017-Nov-18 05:30N 51°20' E 003°13'0 0.0
2017-Nov-18 05:00N 51°20' E 003°13'2 4.8
2017-Nov-18 04:30N 51°22' E 003°11'5 9.2
2017-Nov-18 04:00N 51°24' E 003°04'2 4.7
2017-Nov-18 03:30N 51°24' E 003°01'4 8.1
2017-Nov-18 03:00N 51°22' E 002°55'713.1
2017-Nov-18 02:31N 51°22' E 002°45'2 4.1
2017-Nov-18 02:00N 51°22' E 002°41'3 5.8
2017-Nov-18 01:30N 51°22' E 002°37'4 7.3
2017-Nov-18 00:55N 51°24' E 002°31'1012.9
2017-Nov-18 00:09N 51°33' E 002°37'215.6
2017-Nov-17 23:59N 51°36' E 002°39'11216.6
2017-Nov-17 17:15N 53°09' E 004°21'34415.4
2017-Nov-16 18:52N 57°49' E 010°16'615.9
2017-Nov-16 18:30N 57°49' E 010°27'815.8
2017-Nov-16 18:00N 57°51' E 010°41'815.5
2017-Nov-16 17:30N 57°49' E 010°55'816.0
2017-Nov-16 17:00N 57°45' E 011°08'816.2
2017-Nov-16 16:30N 57°40' E 011°21'816.0
2017-Nov-16 16:00N 57°37' E 011°35'4 8.9
2017-Nov-16 15:30N 57°39' E 011°42'611.0
2017-Nov-16 15:00N 57°41' E 011°51'0 0.8
2017-Nov-16 14:28N 57°41' E 011°52'0 0.0
2017-Nov-16 13:58N 57°41' E 011°52'0 0.0
2017-Nov-16 13:28N 57°41' E 011°52'0 0.0
2017-Nov-16 12:58N 57°41' E 011°52'0 0.0
2017-Nov-16 12:28N 57°41' E 011°52'0 0.0
2017-Nov-16 11:58N 57°41' E 011°52'0 0.0
2017-Nov-16 11:28N 57°41' E 011°52'0 0.0
2017-Nov-16 10:58N 57°41' E 011°52'0 0.0
2017-Nov-16 10:28N 57°41' E 011°52'0 0.0
2017-Nov-16 09:58N 57°41' E 011°52'0 0.0
2017-Nov-16 09:28N 57°41' E 011°52'0 0.0
2017-Nov-16 08:58N 57°41' E 011°52'0 0.0
2017-Nov-16 08:28N 57°41' E 011°52'0 0.0
2017-Nov-16 07:58N 57°41' E 011°52'0 0.0
2017-Nov-16 07:28N 57°41' E 011°52'0 0.0
2017-Nov-16 06:58N 57°41' E 011°52'0 0.0
2017-Nov-16 06:28N 57°41' E 011°52'0 0.0
2017-Nov-16 05:58N 57°41' E 011°52'0 0.0
2017-Nov-16 05:28N 57°41' E 011°52'0 0.0
2017-Nov-16 04:58N 57°41' E 011°52'0 0.0
2017-Nov-16 04:30N 57°41' E 011°52'0 0.0
2017-Nov-16 04:00N 57°41' E 011°52'0 0.0
2017-Nov-16 03:30N 57°41' E 011°52'0 0.0
2017-Nov-16 03:00N 57°41' E 011°52'0 0.0
2017-Nov-16 02:30N 57°41' E 011°52'0 0.0
2017-Nov-16 02:00N 57°41' E 011°52'0 0.0
2017-Nov-16 01:30N 57°41' E 011°52'0 0.0
2017-Nov-16 01:00N 57°41' E 011°52'0 0.0
2017-Nov-16 00:30N 57°41' E 011°52'0 0.0
2017-Nov-16 00:00N 57°41' E 011°52'0 0.0
2017-Nov-15 23:30N 57°41' E 011°52'0 0.0
2017-Nov-15 23:00N 57°41' E 011°52'0 0.0
2017-Nov-15 22:30N 57°41' E 011°52'0 0.0
2017-Nov-15 22:00N 57°41' E 011°52'0 0.0
2017-Nov-15 21:30N 57°41' E 011°52'0 0.0
2017-Nov-15 21:00N 57°41' E 011°52'0 0.0
2017-Nov-15 20:30N 57°41' E 011°52'0 0.0
2017-Nov-15 20:00N 57°41' E 011°52'0 0.0
2017-Nov-15 19:30N 57°41' E 011°52'0 0.0
2017-Nov-15 19:00N 57°41' E 011°52'0 0.0
2017-Nov-15 18:30N 57°41' E 011°52'0 0.0
2017-Nov-15 18:00N 57°41' E 011°52'0 0.0
2017-Nov-15 17:30N 57°41' E 011°52'0 0.0
2017-Nov-15 17:00N 57°41' E 011°52'0 0.0
2017-Nov-15 16:30N 57°41' E 011°52'0 0.0
2017-Nov-15 16:00N 57°41' E 011°52'0 0.0
2017-Nov-15 15:30N 57°41' E 011°52'0 0.0
2017-Nov-15 15:00N 57°41' E 011°52'0 0.0
2017-Nov-15 14:30N 57°41' E 011°52'0 0.0
2017-Nov-15 14:00N 57°41' E 011°52'0 0.0
2017-Nov-15 13:30N 57°41' E 011°52'0 0.0
2017-Nov-15 13:00N 57°41' E 011°52'0 0.0
2017-Nov-15 12:30N 57°41' E 011°52'0 0.0
2017-Nov-15 12:00N 57°41' E 011°52'0 0.0
2017-Nov-15 11:30N 57°41' E 011°52'0 0.0
2017-Nov-15 11:00N 57°41' E 011°52'0 0.0
2017-Nov-15 10:30N 57°41' E 011°52'0 0.0
2017-Nov-15 10:00N 57°41' E 011°52'0 0.0
2017-Nov-15 09:30N 57°41' E 011°52'0 0.0
2017-Nov-15 09:00N 57°41' E 011°52'0 0.0
2017-Nov-15 08:30N 57°41' E 011°52'0 0.0
2017-Nov-15 08:00N 57°41' E 011°52'0 0.0
2017-Nov-15 07:30N 57°41' E 011°52'0 0.0
2017-Nov-15 07:00N 57°41' E 011°52'0 0.0
2017-Nov-15 06:30N 57°41' E 011°52'0 0.0
2017-Nov-15 06:00N 57°41' E 011°52'0 0.0
2017-Nov-15 05:30N 57°41' E 011°52'0 0.0
2017-Nov-15 05:00N 57°41' E 011°52'0 0.0
2017-Nov-15 04:30N 57°41' E 011°52'0 0.0
2017-Nov-15 04:00N 57°41' E 011°52'0 0.0
2017-Nov-15 03:30N 57°41' E 011°52'0 0.0
2017-Nov-15 03:00N 57°41' E 011°52'0 0.0
2017-Nov-15 02:30N 57°41' E 011°52'0 0.0
2017-Nov-15 02:00N 57°41' E 011°52'0 0.0
2017-Nov-15 01:30N 57°41' E 011°52'0 1.0
2017-Nov-15 01:01N 57°41' E 011°51'3 5.9
2017-Nov-15 00:30N 57°40' E 011°46'611.7
2017-Nov-15 00:00N 57°36' E 011°38'4 9.0
2017-Nov-14 23:30N 57°38' E 011°30'3 6.8
2017-Nov-14 23:00N 57°40' E 011°24'4 8.0
2017-Nov-14 22:30N 57°42' E 011°18'510.0
2017-Nov-14 22:00N 57°44' E 011°10'815.8
2017-Nov-14 21:29N 57°48' E 010°57'815.7
2017-Nov-14 21:00N 57°51' E 010°43'815.8
2017-Nov-14 20:30N 57°51' E 010°29'16614.0
2017-Nov-14 08:41N 55°40' E 007°23'315.0
2017-Nov-14 08:30N 55°37' E 007°24'715.1
2017-Nov-14 08:01N 55°30' E 007°24'815.1
2017-Nov-14 07:30N 55°22' E 007°25'815.2
2017-Nov-14 07:01N 55°14' E 007°25'815.2
2017-Nov-14 06:31N 55°07' E 007°26'815.2
2017-Nov-14 06:00N 54°59' E 007°26'815.4
2017-Nov-14 05:28N 54°51' E 007°27'915.2
2017-Nov-14 04:52N 54°42' E 007°28'4215.0
2017-Nov-14 02:05N 54°00' E 007°40'215.2
2017-Nov-14 01:57N 53°59' E 007°41'714.2
2017-Nov-14 01:27N 53°53' E 007°48'512.5
2017-Nov-14 01:00N 53°52' E 007°57'815.8
2017-Nov-14 00:30N 53°48' E 008°09'917.6
2017-Nov-14 00:00N 53°42' E 008°20'917.4
2017-Nov-13 23:31N 53°36' E 008°31'2 4.5
2017-Nov-13 23:00N 53°34' E 008°33'0 0.5
2017-Nov-13 22:30N 53°34' E 008°33'0 0.6
2017-Nov-13 22:00N 53°35' E 008°33'0 0.0
2017-Nov-13 02:00N 53°35' E 008°33'0 0.0
2017-Nov-13 01:30N 53°35' E 008°33'0 0.0
2017-Nov-13 01:00N 53°35' E 008°33'0 0.0
2017-Nov-13 00:30N 53°35' E 008°33'0 0.0
2017-Nov-13 00:00N 53°35' E 008°33'0 0.0
2017-Nov-12 23:30N 53°35' E 008°33'0 0.0
2017-Nov-12 23:00N 53°35' E 008°33'0 0.0
2017-Nov-12 22:30N 53°35' E 008°33'0 0.0
2017-Nov-12 22:00N 53°35' E 008°33'0 0.0
2017-Nov-12 21:30N 53°35' E 008°33'0 0.0
2017-Nov-12 21:00N 53°35' E 008°33'0 0.0
2017-Nov-12 20:30N 53°35' E 008°33'0 0.0
2017-Nov-12 19:59N 53°35' E 008°33'0 0.0
2017-Nov-12 19:29N 53°35' E 008°33'0 0.0
2017-Nov-12 18:59N 53°35' E 008°33'0 0.0
2017-Nov-12 18:29N 53°35' E 008°33'0 0.0
2017-Nov-12 17:59N 53°35' E 008°33'0 0.0
2017-Nov-12 17:29N 53°35' E 008°33'0 0.0
2017-Nov-12 16:59N 53°35' E 008°33'0 0.0
2017-Nov-12 16:29N 53°35' E 008°33'0 0.0
2017-Nov-12 15:59N 53°35' E 008°33'0 0.0
2017-Nov-12 15:29N 53°35' E 008°33'0 0.0
2017-Nov-12 14:59N 53°35' E 008°33'0 0.0
2017-Nov-12 14:29N 53°35' E 008°33'0 0.0
2017-Nov-12 13:59N 53°35' E 008°33'0 0.0
2017-Nov-12 13:29N 53°35' E 008°33'0 0.0
2017-Nov-12 12:59N 53°35' E 008°33'0 0.0
2017-Nov-12 12:29N 53°35' E 008°33'0 0.0
2017-Nov-12 11:59N 53°35' E 008°33'0 0.0
2017-Nov-12 11:29N 53°35' E 008°33'0 0.0
2017-Nov-12 10:59N 53°35' E 008°33'0 0.0
2017-Nov-12 10:29N 53°35' E 008°33'0 0.0
2017-Nov-12 09:59N 53°35' E 008°33'0 0.0
2017-Nov-12 09:29N 53°35' E 008°33'0 0.0
2017-Nov-12 08:59N 53°35' E 008°33'0 0.0
2017-Nov-12 08:29N 53°35' E 008°33'0 0.0
2017-Nov-12 07:59N 53°35' E 008°33'0 0.0
2017-Nov-12 07:29N 53°35' E 008°33'0 0.0
2017-Nov-12 06:59N 53°35' E 008°33'0 0.0
2017-Nov-12 06:29N 53°35' E 008°33'0 0.0
2017-Nov-12 05:59N 53°35' E 008°33'0 0.0
2017-Nov-12 05:29N 53°35' E 008°33'0 0.0
2017-Nov-12 04:59N 53°35' E 008°33'0 0.0
2017-Nov-12 04:29N 53°35' E 008°33'0 0.0
2017-Nov-12 03:59N 53°35' E 008°33'0 0.0
2017-Nov-12 03:29N 53°35' E 008°33'0 0.0
2017-Nov-12 02:59N 53°35' E 008°33'0 0.0
2017-Nov-12 02:29N 53°35' E 008°33'0 0.0
2017-Nov-12 01:59N 53°35' E 008°33'0 0.0
2017-Nov-12 01:29N 53°35' E 008°33'0 0.0
2017-Nov-12 00:59N 53°35' E 008°33'0 0.0
2017-Nov-12 00:29N 53°35' E 008°33'0 0.0
2017-Nov-11 23:56N 53°35' E 008°33'0 0.0
2017-Nov-11 23:29N 53°35' E 008°33'0 0.6
2017-Nov-11 23:00N 53°34' E 008°33'0 0.4
2017-Nov-11 22:31N 53°34' E 008°33'0 0.5
2017-Nov-11 22:00N 53°34' E 008°33'4 7.1
2017-Nov-11 21:30N 53°37' E 008°29'611.8
2017-Nov-11 21:00N 53°41' E 008°22'612.2
2017-Nov-11 20:30N 53°44' E 008°13'611.6
2017-Nov-11 20:00N 53°49' E 008°07'611.5
2017-Nov-11 19:30N 53°51' E 007°58'611.6
2017-Nov-11 19:00N 53°52' E 007°48'4 8.6
2017-Nov-11 18:30N 53°52' E 007°41'3 5.4
2017-Nov-11 18:00N 53°52' E 007°37'2 1.6
2017-Nov-11 16:45N 53°52' E 007°33'1 4.7
2017-Nov-11 16:29N 53°52' E 007°35'2 3.1
2017-Nov-11 15:58N 53°51' E 007°38'8610.8
2017-Nov-11 07:59N 53°32' E 005°16'815.9
2017-Nov-11 07:30N 53°29' E 005°04'815.9
2017-Nov-11 07:00N 53°26' E 004°51'814.9
2017-Nov-11 06:29N 53°21' E 004°41'715.4
2017-Nov-11 06:00N 53°15' E 004°34'815.3
2017-Nov-11 05:29N 53°08' E 004°28'715.2
2017-Nov-11 05:00N 53°02' E 004°22'815.3
2017-Nov-11 04:31N 52°55' E 004°17'714.8
2017-Nov-11 04:01N 52°48' E 004°11'714.5
2017-Nov-11 03:30N 52°42' E 004°06'714.4
2017-Nov-11 03:01N 52°35' E 004°06'714.0
2017-Nov-11 02:31N 52°31' E 004°16'713.6
2017-Nov-11 02:00N 52°29' E 004°27'2 4.7
2017-Nov-11 01:31N 52°28' E 004°30'4 7.4
2017-Nov-11 01:01N 52°28' E 004°36'0 0.7
2017-Nov-11 00:31N 52°28' E 004°37'2 4.7
2017-Nov-11 00:00N 52°27' E 004°41'3 5.4
2017-Nov-10 23:31N 52°26' E 004°44'2 4.1
2017-Nov-10 23:01N 52°25' E 004°48'1 2.2
2017-Nov-10 22:30N 52°25' E 004°49'0 0.0
2017-Nov-10 21:59N 52°25' E 004°49'0 0.0
2017-Nov-10 21:29N 52°25' E 004°49'0 0.0
2017-Nov-10 20:59N 52°25' E 004°49'0 0.0
2017-Nov-10 20:29N 52°25' E 004°49'0 0.0
2017-Nov-10 19:59N 52°25' E 004°49'0 0.0
2017-Nov-10 19:29N 52°25' E 004°49'0 0.0
2017-Nov-10 18:59N 52°25' E 004°49'0 0.0
2017-Nov-10 18:29N 52°25' E 004°49'0 0.0
2017-Nov-10 17:59N 52°25' E 004°49'0 0.0
2017-Nov-10 17:29N 52°25' E 004°49'0 0.0
2017-Nov-10 16:59N 52°25' E 004°49'0 0.0
2017-Nov-10 16:26N 52°25' E 004°49'0 0.0
2017-Nov-10 15:59N 52°25' E 004°49'0 0.0
2017-Nov-10 15:29N 52°25' E 004°49'0 0.0
2017-Nov-10 14:59N 52°25' E 004°49'0 0.0
2017-Nov-10 14:29N 52°25' E 004°49'0 0.0
2017-Nov-10 13:59N 52°25' E 004°49'0 0.0
2017-Nov-10 13:30N 52°25' E 004°49'1 2.8
2017-Nov-10 13:00N 52°25' E 004°47'3 6.7
2017-Nov-10 12:30N 52°26' E 004°42'3 6.7
2017-Nov-10 12:01N 52°28' E 004°37'0 0.6
2017-Nov-10 11:30N 52°28' E 004°37'1 3.0
2017-Nov-10 11:00N 52°28' E 004°34'510.1
2017-Nov-10 10:30N 52°29' E 004°26'3 6.9
2017-Nov-10 10:01N 52°29' E 004°20'714.6
2017-Nov-10 09:30N 52°29' E 004°08'611.9
2017-Nov-10 09:00N 52°28' E 003°59'815.3
2017-Nov-10 08:30N 52°26' E 003°46'815.1
2017-Nov-10 07:59N 52°20' E 003°39'2615.4
2017-Nov-10 06:19N 51°56' E 003°23'715.7
2017-Nov-10 05:50N 51°49' E 003°18'514.3
2017-Nov-10 05:30N 51°45' E 003°16'510.0
2017-Nov-10 05:00N 51°40' E 003°13'917.7
2017-Nov-10 04:31N 51°32' E 003°07'816.1
2017-Nov-10 04:01N 51°25' E 003°01'714.6
2017-Nov-10 03:30N 51°24' E 003°12'714.7
2017-Nov-10 03:00N 51°25' E 003°24'713.3
2017-Nov-10 02:31N 51°25' E 003°35'4 8.1
2017-Nov-10 02:00N 51°26' E 003°41'713.3
2017-Nov-10 01:31N 51°21' E 003°48'612.4
2017-Nov-10 01:00N 51°24' E 003°57'3 6.5
2017-Nov-10 00:30N 51°24' E 004°02'612.2
2017-Nov-10 00:00N 51°24' E 004°12'611.1
2017-Nov-09 23:30N 51°19' E 004°16'3 5.0
2017-Nov-09 23:00N 51°17' E 004°15'0 0.0
2017-Nov-09 22:30N 51°17' E 004°15'1 1.3
2017-Nov-09 22:00N 51°16' E 004°14'0 0.8
2017-Nov-09 21:29N 51°16' E 004°13'0 0.0
2017-Nov-09 20:59N 51°16' E 004°13'0 0.0
2017-Nov-09 20:29N 51°16' E 004°13'0 0.0
2017-Nov-09 19:59N 51°16' E 004°13'0 0.0
2017-Nov-09 19:29N 51°16' E 004°13'0 0.0
2017-Nov-09 18:59N 51°16' E 004°13'0 0.0
2017-Nov-09 18:29N 51°16' E 004°13'  
Track history (hours):
 
Tides and Currents Weather Stations Pressure Air Temp Water Temp Dewpoint Dewpoint Depression Visibility Wind Speed Wind Dir Waves Ship Positions

Boheme

Last reported at 2017-Nov-19 18:00 UTC. Time now 2017-Nov-19 18:21 UTC.
Position N 50°33' W 000°33'.

Length 227 m; draft 9.9 m.

Type: Cargo ship. MMSI: 563262000.

Date/timePositionNaut miles runAvg speedWind from/ knotsBaromVisibWave heightAir tempDewpointWater temp
2017-Nov-19 18:00N 50°33' W 000°33'1 2.5
2017-Nov-19 17:31N 50°32' W 000°35'5 9.6
2017-Nov-19 17:00N 50°29' W 000°40'1 1.4
2017-Nov-19 16:30N 50°28' W 000°41'2 3.1
2017-Nov-19 15:59N 50°29' W 000°39'1 2.8
2017-Nov-19 15:30N 50°30' W 000°38'1 2.3
2017-Nov-19 15:00N 50°31' W 000°36'1 1.8
2017-Nov-19 14:31N 50°32' W 000°35'1 1.5
2017-Nov-19 14:00N 50°32' W 000°34'1 1.3
2017-Nov-19 13:30N 50°33' W 000°34'1 2.3
2017-Nov-19 13:00N 50°33' W 000°32'4 7.0
2017-Nov-19 12:30N 50°33' W 000°26'612.9
2017-Nov-19 12:00N 50°33' W 000°16'714.0
2017-Nov-19 11:30N 50°32' W 000°05'713.9
2017-Nov-19 11:00N 50°31' E 000°06'613.0
2017-Nov-19 10:30N 50°32' E 000°15'714.2
2017-Nov-19 10:00N 50°34' E 000°26'714.0
2017-Nov-19 09:30N 50°36' E 000°37'714.3
2017-Nov-19 09:00N 50°40' E 000°46'815.3
2017-Nov-19 08:30N 50°45' E 000°55'816.4
2017-Nov-19 08:00N 50°51' E 001°04'917.4
2017-Nov-19 07:30N 50°57' E 001°14'918.5
2017-Nov-19 07:01N 51°03' E 001°25'918.9
2017-Nov-19 06:30N 51°09' E 001°37'917.8
2017-Nov-19 06:00N 51°15' E 001°48'816.8
2017-Nov-19 05:30N 51°22' E 001°55'612.3
2017-Nov-19 05:00N 51°24' E 002°04'714.9
2017-Nov-19 04:31N 51°21' E 002°14'714.2
2017-Nov-19 04:00N 51°22' E 002°26'714.4
2017-Nov-19 03:30N 51°23' E 002°37'611.4
2017-Nov-19 02:58N 51°25' E 002°47'510.9
2017-Nov-19 02:30N 51°25' E 002°55'612.1
2017-Nov-19 02:00N 51°24' E 003°04'510.9
2017-Nov-19 01:31N 51°22' E 003°12'2 3.6
2017-Nov-19 01:00N 51°20' E 003°13'0 0.0
2017-Nov-19 00:30N 51°20' E 003°13'1 2.2
2017-Nov-19 00:00N 51°19' E 003°14'0 0.0
2017-Nov-18 23:28N 51°19' E 003°14'0 0.0
2017-Nov-18 22:58N 51°19' E 003°14'0 0.0
2017-Nov-18 22:28N 51°19' E 003°14'0 0.0
2017-Nov-18 21:58N 51°19' E 003°14'0 0.0
2017-Nov-18 21:28N 51°19' E 003°14'0 0.0
2017-Nov-18 20:58N 51°19' E 003°14'0 0.0
2017-Nov-18 20:25N 51°19' E 003°14'0 0.0
2017-Nov-18 19:58N 51°19' E 003°14'0 0.0
2017-Nov-18 19:28N 51°19' E 003°14'0 0.0
2017-Nov-18 18:58N 51°19' E 003°14'0 0.0
2017-Nov-18 18:28N 51°19' E 003°14'0 0.0
2017-Nov-18 17:58N 51°19' E 003°14'0 0.0
2017-Nov-18 17:28N 51°19' E 003°14'0 0.0
2017-Nov-18 17:01N 51°19' E 003°14'0 0.0
2017-Nov-18 16:31N 51°19' E 003°14'0 0.0
2017-Nov-18 15:57N 51°19' E 003°14'0 0.0
2017-Nov-18 15:30N 51°19' E 003°14'0 0.0
2017-Nov-18 15:01N 51°19' E 003°14'0 0.0
2017-Nov-18 14:30N 51°19' E 003°14'0 0.0
2017-Nov-18 14:00N 51°19' E 003°14'0 0.0
2017-Nov-18 13:27N 51°19' E 003°14'0 0.0
2017-Nov-18 13:00N 51°19' E 003°14'0 0.0
2017-Nov-18 12:27N 51°19' E 003°14'0 0.0
2017-Nov-18 12:00N 51°19' E 003°14'0 0.0
2017-Nov-18 11:30N 51°19' E 003°14'0 0.0
2017-Nov-18 11:00N 51°19' E 003°14'0 0.0
2017-Nov-18 10:30N 51°19' E 003°14'0 0.0
2017-Nov-18 10:00N 51°19' E 003°14'0 0.0
2017-Nov-18 09:24N 51°19' E 003°14'0 0.0
2017-Nov-18 09:00N 51°19' E 003°14'0 0.0
2017-Nov-18 08:30N 51°19' E 003°14'0 0.0
2017-Nov-18 08:00N 51°19' E 003°14'0 0.0
2017-Nov-18 07:30N 51°19' E 003°14'0 0.0
2017-Nov-18 07:00N 51°19' E 003°14'0 0.0
2017-Nov-18 06:30N 51°19' E 003°14'1 1.9
2017-Nov-18 06:00N 51°20' E 003°13'0 0.3
2017-Nov-18 05:30N 51°20' E 003°13'0 0.0
2017-Nov-18 05:00N 51°20' E 003°13'2 4.8
2017-Nov-18 04:30N 51°22' E 003°11'5 9.2
2017-Nov-18 04:00N 51°24' E 003°04'2 4.7
2017-Nov-18 03:30N 51°24' E 003°01'4 8.1
2017-Nov-18 03:00N 51°22' E 002°55'713.1
2017-Nov-18 02:31N 51°22' E 002°45'2 4.1
2017-Nov-18 02:00N 51°22' E 002°41'3 5.8
2017-Nov-18 01:30N 51°22' E 002°37'4 7.3
2017-Nov-18 00:55N 51°24' E 002°31'1012.9
2017-Nov-18 00:09N 51°33' E 002°37'215.6
2017-Nov-17 23:59N 51°36' E 002°39'11216.6
2017-Nov-17 17:15N 53°09' E 004°21'34415.4
2017-Nov-16 18:52N 57°49' E 010°16'615.9
2017-Nov-16 18:30N 57°49' E 010°27'815.8
2017-Nov-16 18:00N 57°51' E 010°41'815.5
2017-Nov-16 17:30N 57°49' E 010°55'816.0
2017-Nov-16 17:00N 57°45' E 011°08'816.2
2017-Nov-16 16:30N 57°40' E 011°21'816.0
2017-Nov-16 16:00N 57°37' E 011°35'4 8.9
2017-Nov-16 15:30N 57°39' E 011°42'611.0
2017-Nov-16 15:00N 57°41' E 011°51'0 0.8
2017-Nov-16 14:28N 57°41' E 011°52'0 0.0
2017-Nov-16 13:58N 57°41' E 011°52'0 0.0
2017-Nov-16 13:28N 57°41' E 011°52'0 0.0
2017-Nov-16 12:58N 57°41' E 011°52'0 0.0
2017-Nov-16 12:28N 57°41' E 011°52'0 0.0
2017-Nov-16 11:58N 57°41' E 011°52'0 0.0
2017-Nov-16 11:28N 57°41' E 011°52'0 0.0
2017-Nov-16 10:58N 57°41' E 011°52'0 0.0
2017-Nov-16 10:28N 57°41' E 011°52'0 0.0
2017-Nov-16 09:58N 57°41' E 011°52'0 0.0
2017-Nov-16 09:28N 57°41' E 011°52'0 0.0
2017-Nov-16 08:58N 57°41' E 011°52'0 0.0
2017-Nov-16 08:28N 57°41' E 011°52'0 0.0
2017-Nov-16 07:58N 57°41' E 011°52'0 0.0
2017-Nov-16 07:28N 57°41' E 011°52'0 0.0
2017-Nov-16 06:58N 57°41' E 011°52'0 0.0
2017-Nov-16 06:28N 57°41' E 011°52'0 0.0
2017-Nov-16 05:58N 57°41' E 011°52'0 0.0
2017-Nov-16 05:28N 57°41' E 011°52'0 0.0
2017-Nov-16 04:58N 57°41' E 011°52'0 0.0
2017-Nov-16 04:30N 57°41' E 011°52'0 0.0
2017-Nov-16 04:00N 57°41' E 011°52'0 0.0
2017-Nov-16 03:30N 57°41' E 011°52'0 0.0
2017-Nov-16 03:00N 57°41' E 011°52'0 0.0
2017-Nov-16 02:30N 57°41' E 011°52'0 0.0
2017-Nov-16 02:00N 57°41' E 011°52'0 0.0
2017-Nov-16 01:30N 57°41' E 011°52'0 0.0
2017-Nov-16 01:00N 57°41' E 011°52'0 0.0
2017-Nov-16 00:30N 57°41' E 011°52'0 0.0
2017-Nov-16 00:00N 57°41' E 011°52'0 0.0
2017-Nov-15 23:30N 57°41' E 011°52'0 0.0
2017-Nov-15 23:00N 57°41' E 011°52'0 0.0
2017-Nov-15 22:30N 57°41' E 011°52'0 0.0
2017-Nov-15 22:00N 57°41' E 011°52'0 0.0
2017-Nov-15 21:30N 57°41' E 011°52'0 0.0
2017-Nov-15 21:00N 57°41' E 011°52'0 0.0
2017-Nov-15 20:30N 57°41' E 011°52'0 0.0
2017-Nov-15 20:00N 57°41' E 011°52'0 0.0
2017-Nov-15 19:30N 57°41' E 011°52'0 0.0
2017-Nov-15 19:00N 57°41' E 011°52'0 0.0
2017-Nov-15 18:30N 57°41' E 011°52'0 0.0
2017-Nov-15 18:00N 57°41' E 011°52'0 0.0
2017-Nov-15 17:30N 57°41' E 011°52'0 0.0
2017-Nov-15 17:00N 57°41' E 011°52'0 0.0
2017-Nov-15 16:30N 57°41' E 011°52'0 0.0
2017-Nov-15 16:00N 57°41' E 011°52'0 0.0
2017-Nov-15 15:30N 57°41' E 011°52'0 0.0
2017-Nov-15 15:00N 57°41' E 011°52'0 0.0
2017-Nov-15 14:30N 57°41' E 011°52'0 0.0
2017-Nov-15 14:00N 57°41' E 011°52'0 0.0
2017-Nov-15 13:30N 57°41' E 011°52'0 0.0
2017-Nov-15 13:00N 57°41' E 011°52'0 0.0
2017-Nov-15 12:30N 57°41' E 011°52'0 0.0
2017-Nov-15 12:00N 57°41' E 011°52'0 0.0
2017-Nov-15 11:30N 57°41' E 011°52'0 0.0
2017-Nov-15 11:00N 57°41' E 011°52'0 0.0
2017-Nov-15 10:30N 57°41' E 011°52'0 0.0
2017-Nov-15 10:00N 57°41' E 011°52'0 0.0
2017-Nov-15 09:30N 57°41' E 011°52'0 0.0
2017-Nov-15 09:00N 57°41' E 011°52'0 0.0
2017-Nov-15 08:30N 57°41' E 011°52'0 0.0
2017-Nov-15 08:00N 57°41' E 011°52'0 0.0
2017-Nov-15 07:30N 57°41' E 011°52'0 0.0
2017-Nov-15 07:00N 57°41' E 011°52'0 0.0
2017-Nov-15 06:30N 57°41' E 011°52'0 0.0
2017-Nov-15 06:00N 57°41' E 011°52'0 0.0
2017-Nov-15 05:30N 57°41' E 011°52'0 0.0
2017-Nov-15 05:00N 57°41' E 011°52'0 0.0
2017-Nov-15 04:30N 57°41' E 011°52'0 0.0
2017-Nov-15 04:00N 57°41' E 011°52'0 0.0
2017-Nov-15 03:30N 57°41' E 011°52'0 0.0
2017-Nov-15 03:00N 57°41' E 011°52'0 0.0
2017-Nov-15 02:30N 57°41' E 011°52'0 0.0
2017-Nov-15 02:00N 57°41' E 011°52'0 0.0
2017-Nov-15 01:30N 57°41' E 011°52'0 1.0
2017-Nov-15 01:01N 57°41' E 011°51'3 5.9
2017-Nov-15 00:30N 57°40' E 011°46'611.7
2017-Nov-15 00:00N 57°36' E 011°38'4 9.0
2017-Nov-14 23:30N 57°38' E 011°30'3 6.8
2017-Nov-14 23:00N 57°40' E 011°24'4 8.0
2017-Nov-14 22:30N 57°42' E 011°18'510.0
2017-Nov-14 22:00N 57°44' E 011°10'815.8
2017-Nov-14 21:29N 57°48' E 010°57'815.7
2017-Nov-14 21:00N 57°51' E 010°43'815.8
2017-Nov-14 20:30N 57°51' E 010°29'16614.0
2017-Nov-14 08:41N 55°40' E 007°23'315.0
2017-Nov-14 08:30N 55°37' E 007°24'715.1
2017-Nov-14 08:01N 55°30' E 007°24'815.1
2017-Nov-14 07:30N 55°22' E 007°25'815.2
2017-Nov-14 07:01N 55°14' E 007°25'815.2
2017-Nov-14 06:31N 55°07' E 007°26'815.2
2017-Nov-14 06:00N 54°59' E 007°26'815.4
2017-Nov-14 05:28N 54°51' E 007°27'915.2
2017-Nov-14 04:52N 54°42' E 007°28'4215.0
2017-Nov-14 02:05N 54°00' E 007°40'215.2
2017-Nov-14 01:57N 53°59' E 007°41'714.2
2017-Nov-14 01:27N 53°53' E 007°48'512.5
2017-Nov-14 01:00N 53°52' E 007°57'815.8
2017-Nov-14 00:30N 53°48' E 008°09'917.6
2017-Nov-14 00:00N 53°42' E 008°20'917.4
2017-Nov-13 23:31N 53°36' E 008°31'2 4.5
2017-Nov-13 23:00N 53°34' E 008°33'0 0.5
2017-Nov-13 22:30N 53°34' E 008°33'0 0.6
2017-Nov-13 22:00N 53°35' E 008°33'0 0.0
2017-Nov-13 02:00N 53°35' E 008°33'0 0.0
2017-Nov-13 01:30N 53°35' E 008°33'0 0.0
2017-Nov-13 01:00N 53°35' E 008°33'0 0.0
2017-Nov-13 00:30N 53°35' E 008°33'0 0.0
2017-Nov-13 00:00N 53°35' E 008°33'0 0.0
2017-Nov-12 23:30N 53°35' E 008°33'0 0.0
2017-Nov-12 23:00N 53°35' E 008°33'0 0.0
2017-Nov-12 22:30N 53°35' E 008°33'0 0.0
2017-Nov-12 22:00N 53°35' E 008°33'0 0.0
2017-Nov-12 21:30N 53°35' E 008°33'0 0.0
2017-Nov-12 21:00N 53°35' E 008°33'0 0.0
2017-Nov-12 20:30N 53°35' E 008°33'0 0.0
2017-Nov-12 19:59N 53°35' E 008°33'0 0.0
2017-Nov-12 19:29N 53°35' E 008°33'0 0.0
2017-Nov-12 18:59N 53°35' E 008°33'0 0.0
2017-Nov-12 18:29N 53°35' E 008°33'0 0.0
2017-Nov-12 17:59N 53°35' E 008°33'0 0.0
2017-Nov-12 17:29N 53°35' E 008°33'0 0.0
2017-Nov-12 16:59N 53°35' E 008°33'0 0.0
2017-Nov-12 16:29N 53°35' E 008°33'0 0.0
2017-Nov-12 15:59N 53°35' E 008°33'0 0.0
2017-Nov-12 15:29N 53°35' E 008°33'0 0.0
2017-Nov-12 14:59N 53°35' E 008°33'0 0.0
2017-Nov-12 14:29N 53°35' E 008°33'0 0.0
2017-Nov-12 13:59N 53°35' E 008°33'0 0.0
2017-Nov-12 13:29N 53°35' E 008°33'0 0.0
2017-Nov-12 12:59N 53°35' E 008°33'0 0.0
2017-Nov-12 12:29N 53°35' E 008°33'0 0.0
2017-Nov-12 11:59N 53°35' E 008°33'0 0.0
2017-Nov-12 11:29N 53°35' E 008°33'0 0.0
2017-Nov-12 10:59N 53°35' E 008°33'0 0.0
2017-Nov-12 10:29N 53°35' E 008°33'0 0.0
2017-Nov-12 09:59N 53°35' E 008°33'0 0.0
2017-Nov-12 09:29N 53°35' E 008°33'0 0.0
2017-Nov-12 08:59N 53°35' E 008°33'0 0.0
2017-Nov-12 08:29N 53°35' E 008°33'0 0.0
2017-Nov-12 07:59N 53°35' E 008°33'0 0.0
2017-Nov-12 07:29N 53°35' E 008°33'0 0.0
2017-Nov-12 06:59N 53°35' E 008°33'0 0.0
2017-Nov-12 06:29N 53°35' E 008°33'0 0.0
2017-Nov-12 05:59N 53°35' E 008°33'0 0.0
2017-Nov-12 05:29N 53°35' E 008°33'0 0.0
2017-Nov-12 04:59N 53°35' E 008°33'0 0.0
2017-Nov-12 04:29N 53°35' E 008°33'0 0.0
2017-Nov-12 03:59N 53°35' E 008°33'0 0.0
2017-Nov-12 03:29N 53°35' E 008°33'0 0.0
2017-Nov-12 02:59N 53°35' E 008°33'0 0.0
2017-Nov-12 02:29N 53°35' E 008°33'0 0.0
2017-Nov-12 01:59N 53°35' E 008°33'0 0.0
2017-Nov-12 01:29N 53°35' E 008°33'0 0.0
2017-Nov-12 00:59N 53°35' E 008°33'0 0.0
2017-Nov-12 00:29N 53°35' E 008°33'0 0.0
2017-Nov-11 23:56N 53°35' E 008°33'0 0.0
2017-Nov-11 23:29N 53°35' E 008°33'0 0.6
2017-Nov-11 23:00N 53°34' E 008°33'0 0.4
2017-Nov-11 22:31N 53°34' E 008°33'0 0.5
2017-Nov-11 22:00N 53°34' E 008°33'4 7.1
2017-Nov-11 21:30N 53°37' E 008°29'611.8
2017-Nov-11 21:00N 53°41' E 008°22'612.2
2017-Nov-11 20:30N 53°44' E 008°13'611.6
2017-Nov-11 20:00N 53°49' E 008°07'611.5
2017-Nov-11 19:30N 53°51' E 007°58'611.6
2017-Nov-11 19:00N 53°52' E 007°48'4 8.6
2017-Nov-11 18:30N 53°52' E 007°41'3 5.4
2017-Nov-11 18:00N 53°52' E 007°37'2 1.6
2017-Nov-11 16:45N 53°52' E 007°33'1 4.7
2017-Nov-11 16:29N 53°52' E 007°35'2 3.1
2017-Nov-11 15:58N 53°51' E 007°38'8610.8
2017-Nov-11 07:59N 53°32' E 005°16'815.9
2017-Nov-11 07:30N 53°29' E 005°04'815.9
2017-Nov-11 07:00N 53°26' E 004°51'814.9
2017-Nov-11 06:29N 53°21' E 004°41'715.4
2017-Nov-11 06:00N 53°15' E 004°34'815.3
2017-Nov-11 05:29N 53°08' E 004°28'715.2
2017-Nov-11 05:00N 53°02' E 004°22'815.3
2017-Nov-11 04:31N 52°55' E 004°17'714.8
2017-Nov-11 04:01N 52°48' E 004°11'714.5
2017-Nov-11 03:30N 52°42' E 004°06'714.4
2017-Nov-11 03:01N 52°35' E 004°06'714.0
2017-Nov-11 02:31N 52°31' E 004°16'713.6
2017-Nov-11 02:00N 52°29' E 004°27'2 4.7
2017-Nov-11 01:31N 52°28' E 004°30'4 7.4
2017-Nov-11 01:01N 52°28' E 004°36'0 0.7
2017-Nov-11 00:31N 52°28' E 004°37'2 4.7
2017-Nov-11 00:00N 52°27' E 004°41'3 5.4
2017-Nov-10 23:31N 52°26' E 004°44'2 4.1
2017-Nov-10 23:01N 52°25' E 004°48'1 2.2
2017-Nov-10 22:30N 52°25' E 004°49'0 0.0
2017-Nov-10 21:59N 52°25' E 004°49'0 0.0
2017-Nov-10 21:29N 52°25' E 004°49'0 0.0
2017-Nov-10 20:59N 52°25' E 004°49'0 0.0
2017-Nov-10 20:29N 52°25' E 004°49'0 0.0
2017-Nov-10 19:59N 52°25' E 004°49'0 0.0
2017-Nov-10 19:29N 52°25' E 004°49'0 0.0
2017-Nov-10 18:59N 52°25' E 004°49'0 0.0
2017-Nov-10 18:29N 52°25' E 004°49'0 0.0
2017-Nov-10 17:59N 52°25' E 004°49'0 0.0
2017-Nov-10 17:29N 52°25' E 004°49'0 0.0
2017-Nov-10 16:59N 52°25' E 004°49'0 0.0
2017-Nov-10 16:26N 52°25' E 004°49'0 0.0
2017-Nov-10 15:59N 52°25' E 004°49'0 0.0
2017-Nov-10 15:29N 52°25' E 004°49'0 0.0
2017-Nov-10 14:59N 52°25' E 004°49'0 0.0
2017-Nov-10 14:29N 52°25' E 004°49'0 0.0
2017-Nov-10 13:59N 52°25' E 004°49'0 0.0
2017-Nov-10 13:30N 52°25' E 004°49'1 2.8
2017-Nov-10 13:00N 52°25' E 004°47'3 6.7
2017-Nov-10 12:30N 52°26' E 004°42'3 6.7
2017-Nov-10 12:01N 52°28' E 004°37'0 0.6
2017-Nov-10 11:30N 52°28' E 004°37'1 3.0
2017-Nov-10 11:00N 52°28' E 004°34'510.1
2017-Nov-10 10:30N 52°29' E 004°26'3 6.9
2017-Nov-10 10:01N 52°29' E 004°20'714.6
2017-Nov-10 09:30N 52°29' E 004°08'611.9
2017-Nov-10 09:00N 52°28' E 003°59'815.3
2017-Nov-10 08:30N 52°26' E 003°46'815.1
2017-Nov-10 07:59N 52°20' E 003°39'2615.4
2017-Nov-10 06:19N 51°56' E 003°23'715.7
2017-Nov-10 05:50N 51°49' E 003°18'514.3
2017-Nov-10 05:30N 51°45' E 003°16'510.0
2017-Nov-10 05:00N 51°40' E 003°13'917.7
2017-Nov-10 04:31N 51°32' E 003°07'816.1
2017-Nov-10 04:01N 51°25' E 003°01'714.6
2017-Nov-10 03:30N 51°24' E 003°12'714.7
2017-Nov-10 03:00N 51°25' E 003°24'713.3
2017-Nov-10 02:31N 51°25' E 003°35'4 8.1
2017-Nov-10 02:00N 51°26' E 003°41'713.3
2017-Nov-10 01:31N 51°21' E 003°48'612.4
2017-Nov-10 01:00N 51°24' E 003°57'3 6.5
2017-Nov-10 00:30N 51°24' E 004°02'612.2
2017-Nov-10 00:00N 51°24' E 004°12'611.1
2017-Nov-09 23:30N 51°19' E 004°16'3 5.0
2017-Nov-09 23:00N 51°17' E 004°15'0 0.0
2017-Nov-09 22:30N 51°17' E 004°15'1 1.3
2017-Nov-09 22:00N 51°16' E 004°14'0 0.8
2017-Nov-09 21:29N 51°16' E 004°13'0 0.0
2017-Nov-09 20:59N 51°16' E 004°13'0 0.0
2017-Nov-09 20:29N 51°16' E 004°13'0 0.0
2017-Nov-09 19:59N 51°16' E 004°13'0 0.0
2017-Nov-09 19:29N 51°16' E 004°13'0 0.0
2017-Nov-09 18:59N 51°16' E 004°13'0 0.0
2017-Nov-09 18:29N 51°16' E 004°13'  

Dump ship's entire track history